« Back
NWS Peachtree City, Ga » Text Product » AHN Terminal Aerodrome Forecast


Printer-friendly Version
Current Version              Previous Versions:   1  2  3  4  5  6  7  8  9  

Terminal Aerodrome Forecast

178
FTAK31 PAJN 041740
TAFAHN
TAF
PAHN 041740Z 0418/0518 30013KT P6SM SKC
      TEMPO 0418/0421 30015G21KT
     FM042100 30011KT P6SM SCT100
     FM050600 VRB04KT P6SM SCT050 SCT100
     FM051200 10005KT P6SM SCT040 SCT080
     FM051700 12008KT P6SM SCT020 BKN040
      AMD LTD TO CLD VIS AND WIND=

USA.gov is the U.S. government's official web portal to all federal, state and local government web resources and services.